Time;durP1;ratioP1;P1;durP2;ratioP2;P2;SDS_P1;SDS_P2;PMS_P1;PMS_P2;Temp;Humidity;BMP_temperature;BMP_pressure;BME280_temperature;BME280_humidity;BME280_pressure;Samples;Min_cycle;Max_cycle;Signal;HPM_P1;HPM_P2
2023/10/14 00:02:53;;;;;;;8.25;5.10;;;17.30;1.00;;;;;;10323821;28;20233;-79
2023/10/14 00:08:14;;;;;;;10.90;5.07;;;17.30;1.00;;;;;;10320744;28;20273;-80
2023/10/14 00:13:57;;;;;;;9.98;5.68;;;17.30;1.00;;;;;;10346297;28;20235;-79
2023/10/14 00:19:18;;;;;;;16.10;5.45;;;17.30;99.90;;;;;;10359558;28;20287;-81
2023/10/14 00:24:40;;;;;;;11.25;5.45;;;17.30;99.90;;;;;;10359286;28;20283;-80
2023/10/14 00:30:11;;;;;;;15.32;6.25;;;17.30;99.90;;;;;;10360261;28;20196;-80
2023/10/14 00:35:32;;;;;;;12.75;5.93;;;17.30;1.00;;;;;;10357764;28;20237;-78
2023/10/14 00:40:54;;;;;;;12.10;5.55;;;17.20;99.90;;;;;;10315641;28;20436;-79
2023/10/14 00:46:17;;;;;;;13.48;5.28;;;17.30;23.90;;;;;;10318524;28;20191;-77
2023/10/14 00:51:45;;;;;;;13.13;5.10;;;17.20;99.90;;;;;;10326291;28;20204;-78
2023/10/14 01:02:42;;;;;;;15.38;6.18;;;17.20;99.90;;;;;;10317941;28;20375;-80
2023/10/14 01:08:08;;;;;;;12.00;5.32;;;17.20;99.90;;;;;;10338387;28;20487;-80
2023/10/14 01:13:30;;;;;;;14.30;6.00;;;17.20;99.90;;;;;;10358452;28;20252;-79
2023/10/14 01:18:51;;;;;;;11.13;5.38;;;17.20;56.80;;;;;;10356382;28;20227;-79
2023/10/14 01:24:17;;;;;;;14.95;6.32;;;17.10;99.90;;;;;;10357210;28;20197;-79
2023/10/14 01:29:42;;;;;;;14.25;5.07;;;17.10;99.90;;;;;;10357122;28;20235;-79
2023/10/14 01:35:13;;;;;;;13.10;5.47;;;17.10;99.90;;;;;;10352793;28;20328;-79
2023/10/14 01:40:38;;;;;;;11.05;5.15;;;17.00;99.90;;;;;;10337540;28;20369;-78
2023/10/14 01:46:09;;;;;;;13.48;5.15;;;17.00;99.90;;;;;;10333409;28;20389;-80
2023/10/14 01:51:33;;;;;;;10.82;5.43;;;17.00;99.90;;;;;;10353653;28;20237;-79
2023/10/14 01:56:54;;;;;;;11.82;5.63;;;16.90;99.90;;;;;;10301714;28;20257;-78
2023/10/14 02:02:20;;;;;;;12.82;5.63;;;16.80;1.00;;;;;;10315614;28;20243;-78
2023/10/14 02:08:16;;;;;;;12.32;6.65;;;16.70;1.00;;;;;;10347790;28;20573;-80
2023/10/14 02:13:37;;;;;;;10.80;5.05;;;16.60;1.00;;;;;;10356229;28;20211;-79
2023/10/14 02:19:17;;;;;;;12.35;7.15;;;16.60;1.00;;;;;;10354980;28;20275;-79
2023/10/14 02:24:40;;;;;;;10.48;6.68;;;16.60;99.90;;;;;;10355010;28;20204;-78
2023/10/14 02:30:05;;;;;;;12.00;6.20;;;16.50;1.00;;;;;;10326684;28;20207;-79
2023/10/14 02:35:28;;;;;;;18.95;7.65;;;16.50;1.00;;;;;;10347343;28;20262;-79
2023/10/14 02:40:49;;;;;;;9.38;6.38;;;16.50;1.00;;;;;;10340530;28;20245;-79
2023/10/14 02:46:11;;;;;;;12.75;6.80;;;16.60;99.90;;;;;;10354450;28;20421;-79
2023/10/14 02:51:44;;;;;;;25.13;7.07;;;16.60;1.00;;;;;;10352938;28;20229;-79
2023/10/14 02:57:24;;;;;;;13.27;6.07;;;16.60;1.00;;;;;;10313776;28;20543;-79
2023/10/14 03:02:48;;;;;;;12.45;5.70;;;16.60;1.00;;;;;;10316865;28;20217;-80
2023/10/14 03:08:11;;;;;;;14.98;5.72;;;16.60;1.00;;;;;;10352848;28;20443;-79
2023/10/14 03:13:33;;;;;;;19.55;5.78;;;16.50;1.00;;;;;;10353528;28;20203;-80
2023/10/14 03:18:54;;;;;;;10.35;6.40;;;16.60;1.00;;;;;;10358536;28;20238;-79
2023/10/14 03:24:17;;;;;;;12.30;6.38;;;16.50;99.90;;;;;;10361735;28;20206;-79
2023/10/14 03:29:45;;;;;;;12.40;6.95;;;16.40;99.90;;;;;;10362788;28;20195;-79
2023/10/14 03:35:11;;;;;;;9.25;6.03;;;16.40;1.00;;;;;;10360801;28;20235;-80
2023/10/14 03:46:02;;;;;;;13.50;6.88;;;16.30;1.00;;;;;;10361015;28;20267;-79
2023/10/14 03:51:25;;;;;;;12.95;7.43;;;16.20;1.00;;;;;;10360358;28;20405;-79
2023/10/14 03:56:46;;;;;;;15.30;7.20;;;16.00;99.90;;;;;;10346107;28;20231;-79
2023/10/14 04:02:08;;;;;;;11.15;6.90;;;15.80;1.00;;;;;;10359992;28;20200;-79
2023/10/14 04:07:29;;;;;;;12.00;6.45;;;15.70;1.00;;;;;;10361272;28;20199;-79
2023/10/14 04:12:54;;;;;;;13.93;6.20;;;15.60;1.00;;;;;;10360970;28;20200;-79
2023/10/14 04:18:21;;;;;;;12.15;6.50;;;15.60;1.00;;;;;;10358493;28;20238;-78
2023/10/14 04:29:37;;;;;;;17.25;6.90;;;15.40;53.10;;;;;;10236535;29;20204;-78
2023/10/14 04:35:03;;;;;;;14.80;6.20;;;15.40;91.40;;;;;;10235343;29;20408;-79
2023/10/14 04:46:13;;;;;;;16.83;6.82;;;15.40;99.90;;;;;;10235615;29;20238;-78
2023/10/14 04:51:46;;;;;;;13.65;6.00;;;15.30;99.90;;;;;;10236050;29;20209;-79
2023/10/14 04:57:22;;;;;;;11.68;6.88;;;15.30;99.90;;;;;;10235996;29;20620;-78
2023/10/14 05:02:45;;;;;;;14.40;6.57;;;15.30;99.90;;;;;;10273471;28;20218;-78
2023/10/14 05:08:06;;;;;;;12.35;5.95;;;15.20;99.90;;;;;;10357737;28;20199;-78
2023/10/14 05:13:33;;;;;;;12.55;6.28;;;15.30;99.90;;;;;;10357369;28;20285;-79
2023/10/14 05:19:01;;;;;;;11.93;6.65;;;15.20;99.90;;;;;;10357167;28;20237;-79
2023/10/14 05:24:31;;;;;;;14.93;7.55;;;15.20;99.90;;;;;;10358493;28;20188;-78
2023/10/14 05:29:52;;;;;;;19.17;7.03;;;15.20;99.90;;;;;;10357672;28;20203;-79
2023/10/14 05:35:14;;;;;;;10.75;5.45;;;15.20;99.90;;;;;;10357164;28;20245;-79
2023/10/14 05:40:41;;;;;;;12.52;6.22;;;15.20;99.90;;;;;;10342827;28;20544;-79
2023/10/14 05:46:12;;;;;;;11.95;6.80;;;15.20;99.90;;;;;;10341905;28;20396;-79
2023/10/14 05:51:33;;;;;;;16.60;7.45;;;15.20;99.90;;;;;;10370510;28;20197;-80
2023/10/14 05:56:55;;;;;;;7.75;4.53;;;15.20;99.90;;;;;;10315550;28;20527;-80
2023/10/14 06:02:16;;;;;;;9.88;5.03;;;15.30;99.90;;;;;;10338874;28;20197;-80
2023/10/14 06:07:39;;;;;;;13.20;4.82;;;15.30;99.90;;;;;;10342521;28;20191;-80
2023/10/14 06:13:00;;;;;;;8.55;5.53;;;15.40;76.20;;;;;;10355406;28;20203;-79
2023/10/14 06:18:21;;;;;;;9.45;4.88;;;15.40;25.10;;;;;;10340279;28;20408;-79
2023/10/14 06:23:48;;;;;;;12.50;5.63;;;15.50;1.00;;;;;;10356543;28;20198;-79
2023/10/14 06:29:10;;;;;;;12.63;4.82;;;15.60;1.00;;;;;;10303969;28;20568;-79
2023/10/14 06:34:33;;;;;;;17.13;7.30;;;15.60;1.00;;;;;;10315553;28;20255;-79
2023/10/14 06:39:56;;;;;;;11.75;4.80;;;15.70;1.00;;;;;;10314286;28;20231;-80
2023/10/14 06:45:21;;;;;;;6.38;4.28;;;15.80;1.00;;;;;;10340385;28;20211;-79
2023/10/14 06:50:42;;;;;;;10.07;4.88;;;15.80;1.00;;;;;;10339739;28;20380;-80
2023/10/14 06:56:04;;;;;;;7.35;4.38;;;15.80;1.00;;;;;;10352599;28;20326;-79
2023/10/14 07:01:28;;;;;;;11.20;4.47;;;16.00;1.00;;;;;;10354815;28;20195;-79
2023/10/14 07:06:50;;;;;;;16.40;5.93;;;16.20;1.80;;;;;;10355106;28;20242;-80
2023/10/14 07:12:14;;;;;;;10.63;5.85;;;16.40;1.00;;;;;;10349768;28;20508;-80
2023/10/14 07:17:35;;;;;;;9.23;5.30;;;16.90;1.00;;;;;;10314600;28;20223;-79
2023/10/14 07:23:01;;;;;;;14.50;5.38;;;17.00;1.00;;;;;;10313347;28;20603;-77
2023/10/14 07:28:22;;;;;;;22.05;5.70;;;17.10;99.90;;;;;;10347667;28;20205;-79
2023/10/14 07:33:43;;;;;;;7.82;2.30;;;16.90;1.00;;;;;;10352210;28;20421;-79
2023/10/14 07:44:44;;;;;;;6.93;2.50;;;15.70;1.00;;;;;;10352892;28;20218;-79
2023/10/14 07:50:09;;;;;;;3.83;1.50;;;15.40;1.00;;;;;;10350523;28;20214;-79
2023/10/14 07:55:32;;;;;;;3.13;2.15;;;15.10;1.00;;;;;;10351148;28;20214;-79
2023/10/14 08:00:55;;;;;;;3.25;1.67;;;14.90;1.00;;;;;;10339534;28;20437;-80
2023/10/14 08:06:18;;;;;;;2.80;1.70;;;14.60;1.00;;;;;;10358701;28;20514;-79
2023/10/14 08:11:39;;;;;;;4.57;1.83;;;14.40;1.00;;;;;;10361216;28;20205;-80
2023/10/14 08:17:00;;;;;;;4.37;2.23;;;14.30;1.00;;;;;;10306081;28;20615;-80
2023/10/14 08:22:21;;;;;;;5.35;2.00;;;14.10;99.90;;;;;;10326084;28;20214;-80
2023/10/14 08:27:43;;;;;;;2.35;1.98;;;14.00;99.90;;;;;;10334032;28;20205;-79
2023/10/14 08:33:07;;;;;;;7.73;2.70;;;13.90;99.90;;;;;;10360473;28;20201;-80
2023/10/14 08:38:30;;;;;;;1.27;1.00;;;13.80;1.00;;;;;;10331271;28;20233;-79
2023/10/14 08:43:56;;;;;;;2.97;0.90;;;13.80;99.90;;;;;;10330164;28;20205;-79
2023/10/14 08:49:23;;;;;;;3.03;1.00;;;13.80;99.90;;;;;;10358683;28;20214;-79
2023/10/14 08:54:46;;;;;;;1.63;0.97;;;13.70;1.00;;;;;;10359341;28;20205;-79
2023/10/14 09:00:12;;;;;;;5.60;1.23;;;13.80;99.90;;;;;;10359033;28;20221;-79
2023/10/14 09:05:40;;;;;;;2.27;1.00;;;13.70;99.90;;;;;;10357408;28;20198;-79
2023/10/14 09:11:04;;;;;;;3.03;1.67;;;13.60;99.90;;;;;;10358938;28;20214;-79
2023/10/14 09:16:26;;;;;;;6.80;1.33;;;13.60;99.90;;;;;;10356790;28;20311;-80
2023/10/14 09:21:48;;;;;;;4.17;1.70;;;13.50;1.00;;;;;;10357907;28;20212;-80
2023/10/14 09:27:51;;;;;;;6.30;1.53;;;13.40;99.90;;;;;;10358752;28;20507;-78
2023/10/14 09:33:15;;;;;;;6.13;1.60;;;13.50;99.90;;;;;;10355857;28;20612;-79
2023/10/14 09:38:37;;;;;;;5.63;1.63;;;13.60;1.00;;;;;;10357286;28;20228;-78
2023/10/14 09:43:58;;;;;;;5.17;1.30;;;13.70;1.00;;;;;;10356895;28;20371;-79
2023/10/14 09:49:22;;;;;;;5.25;1.73;;;13.90;99.90;;;;;;10356690;28;20216;-78
2023/10/14 09:54:49;;;;;;;10.47;2.27;;;14.00;5.30;;;;;;10333833;28;20209;-79
2023/10/14 10:00:11;;;;;;;6.33;1.67;;;14.00;1.00;;;;;;10316725;28;20301;-79
2023/10/14 10:05:39;;;;;;;8.03;1.70;;;14.20;1.00;;;;;;10345404;28;20527;-79
2023/10/14 10:11:02;;;;;;;7.68;1.92;;;14.30;1.00;;;;;;10338512;28;20491;-79
2023/10/14 10:16:33;;;;;;;8.13;1.70;;;14.40;1.00;;;;;;10340333;28;20244;-78
2023/10/14 10:22:14;;;;;;;6.40;1.55;;;14.60;1.00;;;;;;10354869;28;20387;-76
2023/10/14 10:27:36;;;;;;;6.13;1.90;;;14.80;99.90;;;;;;10341144;28;20199;-77
2023/10/14 10:33:11;;;;;;;3.40;1.45;;;15.70;1.00;;;;;;10315523;28;20204;-79
2023/10/14 10:38:36;;;;;;;4.18;1.73;;;;;;;;;;10315511;28;20222;-79
2023/10/14 10:44:01;;;;;;;6.15;1.98;;;17.90;10.60;;;;;;10335582;28;20555;-79
2023/10/14 10:49:51;;;;;;;4.78;1.70;;;18.70;1.00;;;;;;10355340;28;20193;-77
2023/10/14 10:55:14;;;;;;;8.55;2.22;;;18.80;1.00;;;;;;10353365;28;20290;-78
2023/10/14 11:00:38;;;;;;;5.47;1.80;;;18.40;1.00;;;;;;10351993;28;20225;-79
2023/10/14 11:05:59;;;;;;;5.22;1.80;;;18.50;1.00;;;;;;10353341;28;20208;-79
2023/10/14 11:11:21;;;;;;;9.43;2.15;;;18.50;1.00;;;;;;10354196;28;20202;-79
2023/10/14 11:16:52;;;;;;;6.18;1.83;;;19.10;1.00;;;;;;10352906;28;20228;-80
2023/10/14 11:22:13;;;;;;;6.93;1.90;;;19.60;1.00;;;;;;10353979;28;20485;-77
2023/10/14 11:27:34;;;;;;;6.70;2.83;;;20.70;1.00;;;;;;10354397;28;20272;-79
2023/10/14 11:32:58;;;;;;;5.65;1.55;;;21.50;1.00;;;;;;10353369;28;20260;-80
2023/10/14 11:38:22;;;;;;;6.32;2.35;;;;;;;;;;10357465;28;20225;-78
2023/10/14 11:43:45;;;;;;;7.53;2.03;;;21.20;1.00;;;;;;10361304;28;20420;-79
2023/10/14 11:49:14;;;;;;;8.35;1.67;;;20.80;1.00;;;;;;10346642;28;20220;-79
2023/10/14 11:54:37;;;;;;;3.95;1.60;;;20.60;1.00;;;;;;10361765;28;20198;-79
2023/10/14 11:59:59;;;;;;;3.25;1.70;;;20.70;1.00;;;;;;10360890;28;20222;-79
2023/10/14 12:05:21;;;;;;;6.28;1.80;;;19.80;99.90;;;;;;10361290;28;20192;-80
2023/10/14 12:10:45;;;;;;;7.03;1.90;;;18.60;99.90;;;;;;10359868;28;20198;-79
2023/10/14 12:16:07;;;;;;;7.88;1.92;;;17.90;99.90;;;;;;10358057;28;20237;-79
2023/10/14 12:21:28;;;;;;;13.63;2.20;;;18.60;1.00;;;;;;10360649;28;20194;-79
2023/10/14 12:26:52;;;;;;;5.22;1.80;;;20.00;99.90;;;;;;10360557;28;20194;-79
2023/10/14 12:32:17;;;;;;;13.13;2.08;;;20.30;99.90;;;;;;10344695;28;20208;-79
2023/10/14 12:37:40;;;;;;;5.60;2.05;;;19.50;99.90;;;;;;10359103;28;20237;-80
2023/10/14 12:43:03;;;;;;;7.97;1.80;;;18.70;99.90;;;;;;10358901;28;20461;-79
2023/10/14 12:48:24;;;;;;;7.35;2.40;;;;;;;;;;10357111;28;20206;-79
2023/10/14 12:53:46;;;;;;;9.18;2.00;;;;;;;;;;10359349;28;20284;-78
2023/10/14 12:59:12;;;;;;;6.65;1.65;;;;;;;;;;10356013;28;20310;-77
2023/10/14 13:04:34;;;;;;;4.28;1.60;;;16.60;99.90;;;;;;10357996;28;20227;-80
2023/10/14 13:09:55;;;;;;;4.50;1.52;;;15.90;1.00;;;;;;10359013;28;20199;-78
2023/10/14 13:15:26;;;;;;;5.05;1.45;;;15.80;1.00;;;;;;10345912;28;20496;-79
2023/10/14 13:20:47;;;;;;;8.93;1.77;;;15.50;1.00;;;;;;10323813;28;20236;-80
2023/10/14 13:26:10;;;;;;;7.78;1.67;;;15.10;1.00;;;;;;10331168;28;20239;-79
2023/10/14 13:31:31;;;;;;;9.20;1.80;;;14.70;1.00;;;;;;10335687;28;20208;-78
2023/10/14 13:36:52;;;;;;;4.47;1.35;;;14.20;1.00;;;;;;10317558;28;20234;-77
2023/10/14 13:42:17;;;;;;;3.88;1.33;;;14.00;55.30;;;;;;10324235;28;20216;-78
2023/10/14 13:47:39;;;;;;;2.88;1.27;;;15.20;1.00;;;;;;10347103;28;20201;-79
2023/10/14 13:53:09;;;;;;;5.50;1.35;;;16.30;1.00;;;;;;10317827;28;20256;-79
2023/10/14 13:58:30;;;;;;;6.25;1.60;;;16.20;1.00;;;;;;10334843;28;20231;-78
2023/10/14 14:03:58;;;;;;;5.13;1.48;;;15.50;1.00;;;;;;10355478;28;20210;-79
2023/10/14 14:09:21;;;;;;;2.80;1.30;;;14.90;1.00;;;;;;10352394;28;20444;-79
2023/10/14 14:14:43;;;;;;;7.68;1.65;;;14.60;1.00;;;;;;10332169;28;20258;-78
2023/10/14 14:20:05;;;;;;;7.03;1.83;;;14.20;1.00;;;;;;10316027;28;20226;-78
2023/10/14 14:25:29;;;;;;;5.85;1.40;;;14.10;1.00;;;;;;10334362;28;20205;-78
2023/10/14 14:30:51;;;;;;;5.13;1.23;;;14.00;1.00;;;;;;10338806;28;20205;-79
2023/10/14 14:36:13;;;;;;;6.68;1.88;;;13.90;1.00;;;;;;10340458;28;20249;-79
2023/10/14 14:41:36;;;;;;;4.30;1.75;;;13.80;1.00;;;;;;10355525;28;20207;-78
2023/10/14 14:46:59;;;;;;;8.33;1.53;;;13.60;1.00;;;;;;10355075;28;20254;-79
2023/10/14 14:52:20;;;;;;;4.97;1.73;;;13.60;1.00;;;;;;10343227;28;20481;-78
2023/10/14 14:57:44;;;;;;;6.53;1.40;;;13.50;1.00;;;;;;10353395;28;20241;-79
2023/10/14 15:03:06;;;;;;;5.50;1.70;;;13.30;1.00;;;;;;10345973;28;20208;-79
2023/10/14 15:08:28;;;;;;;6.93;2.23;;;13.30;1.00;;;;;;10353371;28;20212;-79
2023/10/14 15:13:49;;;;;;;6.77;2.33;;;13.10;17.30;;;;;;10353062;28;20426;-79
2023/10/14 15:19:10;;;;;;;11.90;2.80;;;13.00;24.50;;;;;;10352635;28;20232;-79
2023/10/14 15:24:33;;;;;;;8.97;1.97;;;12.90;84.00;;;;;;10334965;28;20388;-79
2023/10/14 15:29:54;;;;;;;7.67;2.07;;;12.80;92.70;;;;;;10312758;28;20201;-79
2023/10/14 15:35:21;;;;;;;6.47;1.63;;;12.80;1.00;;;;;;10312757;28;20527;-80
2023/10/14 15:40:47;;;;;;;12.90;1.57;;;12.70;1.00;;;;;;10353025;28;20272;-80
2023/10/14 15:46:08;;;;;;;4.00;1.10;;;12.70;1.00;;;;;;10339208;28;20198;-80
2023/10/14 15:51:29;;;;;;;7.97;1.30;;;12.50;1.00;;;;;;10352040;28;20208;-80
2023/10/14 15:56:51;;;;;;;4.40;1.47;;;12.20;1.00;;;;;;10352322;28;20205;-79
2023/10/14 16:02:12;;;;;;;3.57;1.43;;;12.10;1.00;;;;;;10353853;28;20429;-79
2023/10/14 16:07:37;;;;;;;5.90;1.77;;;12.00;1.00;;;;;;10351223;28;20209;-80
2023/10/14 16:12:59;;;;;;;4.60;1.30;;;12.00;1.00;;;;;;10353830;28;20197;-79
2023/10/14 16:18:20;;;;;;;6.70;1.93;;;11.90;1.00;;;;;;10337653;28;20246;-79
2023/10/14 16:23:42;;;;;;;7.67;1.93;;;11.90;1.00;;;;;;10353983;28;20203;-78
2023/10/14 16:29:03;;;;;;;6.60;2.10;;;11.90;1.00;;;;;;10353459;28;20274;-79
2023/10/14 16:34:27;;;;;;;8.00;1.67;;;11.80;1.00;;;;;;10356768;28;20262;-79
2023/10/14 16:39:49;;;;;;;9.50;2.50;;;11.80;25.70;;;;;;10358415;28;20231;-79
2023/10/14 16:45:10;;;;;;;7.53;3.47;;;11.80;23.60;;;;;;10360213;28;20261;-80
2023/10/14 16:50:31;;;;;;;17.50;3.57;;;11.80;69.60;;;;;;10358519;28;20249;-79
2023/10/14 16:55:52;;;;;;;6.50;1.77;;;11.80;99.90;;;;;;10347382;28;20285;-79
2023/10/14 17:01:14;;;;;;;6.33;2.40;;;11.70;99.90;;;;;;10357590;28;20255;-79
2023/10/14 17:06:36;;;;;;;6.03;2.70;;;11.60;99.90;;;;;;10357503;28;20214;-79
2023/10/14 17:11:58;;;;;;;10.10;4.10;;;11.70;99.90;;;;;;10358062;28;20232;-79
2023/10/14 17:17:20;;;;;;;10.57;4.20;;;11.70;99.90;;;;;;10357327;28;20227;-80
2023/10/14 17:22:42;;;;;;;13.97;5.97;;;11.60;99.90;;;;;;10356068;28;20299;-79
2023/10/14 17:28:03;;;;;;;14.20;6.80;;;11.50;1.00;;;;;;10326235;28;20212;-79
2023/10/14 17:33:25;;;;;;;15.60;6.50;;;11.50;1.00;;;;;;10317771;28;20250;-79
2023/10/14 17:38:49;;;;;;;15.83;6.40;;;11.40;1.00;;;;;;10347239;28;20231;-79
2023/10/14 17:44:11;;;;;;;16.27;7.27;;;11.40;1.00;;;;;;10370368;28;20226;-79
2023/10/14 17:49:32;;;;;;;8.70;4.13;;;11.30;1.00;;;;;;10355467;28;20211;-79
2023/10/14 17:54:53;;;;;;;8.23;1.93;;;11.20;1.00;;;;;;10356865;28;20224;-79
2023/10/14 18:00:25;;;;;;;10.27;3.93;;;11.10;99.90;;;;;;10356252;28;20540;-78
2023/10/14 18:05:50;;;;;;;4.37;1.70;;;11.00;99.90;;;;;;10353752;28;20205;-79
2023/10/14 18:11:12;;;;;;;4.60;1.63;;;10.90;99.90;;;;;;10355113;28;20223;-80
2023/10/14 18:16:33;;;;;;;5.07;1.80;;;10.80;99.90;;;;;;10352648;28;20201;-79
2023/10/14 18:21:56;;;;;;;6.50;1.87;;;10.80;99.90;;;;;;10355488;28;20275;-79
2023/10/14 18:27:17;;;;;;;9.83;2.70;;;10.70;99.90;;;;;;10345916;28;20256;-79
2023/10/14 18:32:43;;;;;;;8.37;2.60;;;10.60;99.90;;;;;;10353941;28;20204;-79
2023/10/14 18:38:04;;;;;;;7.90;1.70;;;10.60;99.90;;;;;;10353777;28;20601;-79
2023/10/14 18:43:25;;;;;;;6.03;1.80;;;10.50;99.90;;;;;;10352187;28;20203;-79
2023/10/14 18:48:46;;;;;;;6.70;1.63;;;10.50;99.90;;;;;;10337406;28;20210;-79
2023/10/14 18:54:07;;;;;;;3.83;1.40;;;10.50;99.90;;;;;;10341804;28;20395;-80
2023/10/14 18:59:29;;;;;;;6.50;1.80;;;10.40;99.90;;;;;;10351084;28;20224;-79
2023/10/14 19:04:51;;;;;;;6.93;1.73;;;10.30;99.90;;;;;;10353580;28;20194;-80
2023/10/14 19:10:13;;;;;;;8.87;1.93;;;10.20;99.90;;;;;;10353384;28;20367;-79
2023/10/14 19:15:36;;;;;;;5.33;1.43;;;10.20;99.90;;;;;;10351297;28;20305;-79
2023/10/14 19:21:02;;;;;;;9.10;2.20;;;10.10;99.90;;;;;;10339492;28;20413;-79
2023/10/14 19:26:25;;;;;;;5.40;1.40;;;10.00;99.90;;;;;;10325853;28;20215;-79
2023/10/14 19:31:46;;;;;;;5.60;1.50;;;10.10;99.90;;;;;;10332924;28;20204;-79
2023/10/14 19:37:09;;;;;;;8.17;1.60;;;10.00;99.90;;;;;;10353078;28;20485;-79
2023/10/14 19:42:30;;;;;;;4.27;1.40;;;10.00;99.90;;;;;;10354158;28;20193;-79
2023/10/14 19:47:51;;;;;;;7.13;1.67;;;10.00;99.90;;;;;;10351701;28;20239;-79
2023/10/14 19:53:13;;;;;;;5.80;1.53;;;10.10;99.90;;;;;;10352330;28;20210;-79
2023/10/14 19:58:35;;;;;;;6.67;2.07;;;10.10;99.90;;;;;;10351270;28;20546;-79
2023/10/14 20:03:56;;;;;;;6.73;2.00;;;10.00;99.90;;;;;;10359897;28;20230;-79
2023/10/14 20:09:17;;;;;;;5.63;1.60;;;9.90;99.90;;;;;;10360388;28;20231;-80
2023/10/14 20:14:38;;;;;;;11.70;1.93;;;9.90;1.00;;;;;;10359389;28;20205;-79
2023/10/14 20:20:00;;;;;;;8.10;2.07;;;9.80;1.00;;;;;;10328425;28;20224;-79
2023/10/14 20:25:25;;;;;;;6.43;1.70;;;9.80;1.00;;;;;;10339852;28;20507;-80
2023/10/14 20:30:49;;;;;;;5.97;2.17;;;9.70;1.00;;;;;;10360161;28;20223;-78
2023/10/14 20:36:13;;;;;;;6.80;2.20;;;9.70;1.00;;;;;;10360320;28;20233;-77
2023/10/14 20:41:35;;;;;;;6.90;2.10;;;9.60;1.00;;;;;;10357177;28;20257;-79
2023/10/14 20:46:57;;;;;;;5.80;1.87;;;9.50;1.00;;;;;;10357714;28;20228;-79
2023/10/14 20:52:18;;;;;;;6.50;2.03;;;9.50;1.00;;;;;;10358347;28;20374;-79
2023/10/14 20:57:39;;;;;;;5.97;1.77;;;9.40;1.00;;;;;;10357717;28;20219;-79
2023/10/14 21:03:09;;;;;;;8.30;2.20;;;9.40;1.00;;;;;;10334651;28;20209;-79
2023/10/14 21:08:31;;;;;;;5.13;1.60;;;9.30;1.00;;;;;;10359206;28;20359;-79
2023/10/14 21:13:52;;;;;;;8.73;1.80;;;9.30;1.00;;;;;;10357239;28;20274;-79
2023/10/14 21:19:13;;;;;;;3.07;1.47;;;9.30;1.00;;;;;;10357498;28;20228;-79
2023/10/14 21:24:35;;;;;;;8.03;2.73;;;9.20;1.00;;;;;;10357592;28;20206;-78
2023/10/14 21:29:56;;;;;;;6.07;1.90;;;9.10;1.00;;;;;;10357718;28;20222;-79
2023/10/14 21:35:17;;;;;;;5.63;1.70;;;9.10;1.00;;;;;;10337243;28;20298;-78
2023/10/14 21:41:19;;;;;;;7.83;2.13;;;9.10;14.90;;;;;;10357990;28;20227;-79
2023/10/14 21:46:40;;;;;;;6.13;1.87;;;9.10;1.00;;;;;;10354764;28;20545;-78
2023/10/14 21:52:03;;;;;;;4.43;1.60;;;9.00;99.90;;;;;;10329366;28;20211;-79
2023/10/14 21:57:25;;;;;;;5.23;1.67;;;8.90;76.20;;;;;;10355480;28;20494;-79
2023/10/14 22:02:53;;;;;;;6.63;2.00;;;8.90;81.80;;;;;;10339620;28;20207;-79
2023/10/14 22:08:17;;;;;;;6.03;1.70;;;8.90;99.90;;;;;;10353416;28;20192;-79
2023/10/14 22:13:39;;;;;;;11.93;1.97;;;8.80;99.90;;;;;;10355252;28;20258;-79
2023/10/14 22:19:03;;;;;;;10.73;1.80;;;8.90;12.60;;;;;;10354286;28;20237;-79
2023/10/14 22:24:32;;;;;;;6.00;2.20;;;8.90;1.00;;;;;;10356018;28;20215;-79
2023/10/14 22:29:53;;;;;;;11.33;2.10;;;8.80;1.00;;;;;;10343136;28;20301;-79
2023/10/14 22:35:18;;;;;;;5.13;1.50;;;8.80;1.00;;;;;;10320400;28;20229;-79
2023/10/14 22:40:44;;;;;;;9.90;1.70;;;8.80;1.00;;;;;;10319351;28;20250;-79
2023/10/14 22:46:10;;;;;;;8.47;2.03;;;8.80;1.00;;;;;;10316960;28;20221;-79
2023/10/14 22:51:32;;;;;;;7.33;1.93;;;8.80;1.00;;;;;;10314061;28;20222;-78
2023/10/14 22:56:53;;;;;;;9.50;2.87;;;8.70;1.00;;;;;;10341499;28;20396;-79
2023/10/14 23:02:15;;;;;;;6.17;1.70;;;8.70;1.00;;;;;;10355175;28;20267;-79
2023/10/14 23:07:36;;;;;;;5.40;2.13;;;8.70;1.00;;;;;;10354035;28;20209;-79
2023/10/14 23:12:58;;;;;;;6.43;2.27;;;8.60;18.90;;;;;;10354858;28;20195;-79
2023/10/14 23:18:21;;;;;;;11.97;2.27;;;8.60;99.90;;;;;;10353359;28;20269;-79
2023/10/14 23:23:43;;;;;;;10.90;2.27;;;8.60;99.90;;;;;;10354847;28;20436;-77
2023/10/14 23:29:06;;;;;;;10.80;2.37;;;8.50;99.90;;;;;;10343935;28;20227;-79
2023/10/14 23:34:27;;;;;;;5.50;1.73;;;8.50;99.90;;;;;;10317827;28;20222;-79
2023/10/14 23:39:49;;;;;;;6.33;1.63;;;8.50;99.90;;;;;;10353172;28;20420;-79
2023/10/14 23:45:13;;;;;;;12.03;2.10;;;8.60;99.90;;;;;;10362550;28;20190;-79
2023/10/14 23:50:35;;;;;;;10.47;2.03;;;8.50;99.90;;;;;;10358552;28;20568;-78
2023/10/14 23:55:57;;;;;;;6.90;2.00;;;8.50;99.90;;;;;;10358992;28;20210;-79
